sensor_id;sensor_type;location;lat;lon;timestamp;temperature;humidity
11650;DHT22;5881;48.522;7.682;2023-07-13T00:02:15;19.60;1.00
11650;DHT22;5881;48.522;7.682;2023-07-13T00:04:41;19.70;1.00
11650;DHT22;5881;48.522;7.682;2023-07-13T00:07:07;19.70;1.00
11650;DHT22;5881;48.522;7.682;2023-07-13T00:09:33;19.60;1.00
11650;DHT22;5881;48.522;7.682;2023-07-13T00:11:59;19.50;1.00
11650;DHT22;5881;48.522;7.682;2023-07-13T00:14:26;19.30;1.00
11650;DHT22;5881;48.522;7.682;2023-07-13T00:16:52;19.30;1.00
11650;DHT22;5881;48.522;7.682;2023-07-13T00:19:18;19.30;1.00
11650;DHT22;5881;48.522;7.682;2023-07-13T00:21:43;19.20;1.00
11650;DHT22;5881;48.522;7.682;2023-07-13T00:24:12;19.30;1.00
11650;DHT22;5881;48.522;7.682;2023-07-13T00:26:41;19.10;1.00
11650;DHT22;5881;48.522;7.682;2023-07-13T00:29:10;19.10;1.00
11650;DHT22;5881;48.522;7.682;2023-07-13T00:31:35;19.00;1.00
11650;DHT22;5881;48.522;7.682;2023-07-13T00:34:02;18.90;1.00
11650;DHT22;5881;48.522;7.682;2023-07-13T00:36:29;18.80;1.00
11650;DHT22;5881;48.522;7.682;2023-07-13T00:38:55;18.90;1.00
11650;DHT22;5881;48.522;7.682;2023-07-13T00:41:20;18.90;1.00
11650;DHT22;5881;48.522;7.682;2023-07-13T00:43:46;18.90;1.00
11650;DHT22;5881;48.522;7.682;2023-07-13T00:46:24;18.90;1.00
11650;DHT22;5881;48.522;7.682;2023-07-13T00:48:50;18.80;1.00
11650;DHT22;5881;48.522;7.682;2023-07-13T00:51:33;18.70;1.00
11650;DHT22;5881;48.522;7.682;2023-07-13T00:54:04;18.60;1.00
11650;DHT22;5881;48.522;7.682;2023-07-13T00:56:30;18.60;1.00
11650;DHT22;5881;48.522;7.682;2023-07-13T00:58:57;18.60;1.00
11650;DHT22;5881;48.522;7.682;2023-07-13T01:01:24;18.60;1.00
11650;DHT22;5881;48.522;7.682;2023-07-13T01:03:50;18.40;1.00
11650;DHT22;5881;48.522;7.682;2023-07-13T01:06:16;18.40;1.00
11650;DHT22;5881;48.522;7.682;2023-07-13T01:08:43;18.30;1.00
11650;DHT22;5881;48.522;7.682;2023-07-13T01:11:08;18.20;1.00
11650;DHT22;5881;48.522;7.682;2023-07-13T01:13:34;18.10;1.00
11650;DHT22;5881;48.522;7.682;2023-07-13T01:16:04;18.10;1.00
11650;DHT22;5881;48.522;7.682;2023-07-13T01:18:34;18.20;1.00
11650;DHT22;5881;48.522;7.682;2023-07-13T01:21:02;18.20;1.00
11650;DHT22;5881;48.522;7.682;2023-07-13T01:23:30;18.20;1.00
11650;DHT22;5881;48.522;7.682;2023-07-13T01:25:56;18.20;1.00
11650;DHT22;5881;48.522;7.682;2023-07-13T01:28:22;18.20;1.00
11650;DHT22;5881;48.522;7.682;2023-07-13T01:30:48;18.20;1.00
11650;DHT22;5881;48.522;7.682;2023-07-13T01:33:16;18.20;1.00
11650;DHT22;5881;48.522;7.682;2023-07-13T01:35:44;18.10;1.00
11650;DHT22;5881;48.522;7.682;2023-07-13T01:38:10;18.00;1.00
11650;DHT22;5881;48.522;7.682;2023-07-13T01:40:36;18.00;1.00
11650;DHT22;5881;48.522;7.682;2023-07-13T01:43:03;17.90;1.00
11650;DHT22;5881;48.522;7.682;2023-07-13T01:45:28;17.70;1.00
11650;DHT22;5881;48.522;7.682;2023-07-13T01:47:54;17.40;1.00
11650;DHT22;5881;48.522;7.682;2023-07-13T01:50:20;17.30;1.00
11650;DHT22;5881;48.522;7.682;2023-07-13T01:52:45;17.30;1.00
11650;DHT22;5881;48.522;7.682;2023-07-13T01:55:11;17.40;1.00
11650;DHT22;5881;48.522;7.682;2023-07-13T01:57:37;17.30;1.00
11650;DHT22;5881;48.522;7.682;2023-07-13T02:00:07;17.40;1.00
11650;DHT22;5881;48.522;7.682;2023-07-13T02:02:32;17.50;1.00
11650;DHT22;5881;48.522;7.682;2023-07-13T02:04:58;17.60;1.00
11650;DHT22;5881;48.522;7.682;2023-07-13T02:07:24;17.70;1.00
11650;DHT22;5881;48.522;7.682;2023-07-13T02:09:49;17.70;1.00
11650;DHT22;5881;48.522;7.682;2023-07-13T02:12:15;17.60;1.00
11650;DHT22;5881;48.522;7.682;2023-07-13T02:14:40;17.50;1.00
11650;DHT22;5881;48.522;7.682;2023-07-13T02:17:06;17.50;1.00
11650;DHT22;5881;48.522;7.682;2023-07-13T02:19:32;17.40;1.00
11650;DHT22;5881;48.522;7.682;2023-07-13T02:21:58;17.30;1.00
11650;DHT22;5881;48.522;7.682;2023-07-13T02:24:24;17.20;1.00
11650;DHT22;5881;48.522;7.682;2023-07-13T02:26:49;17.10;1.00
11650;DHT22;5881;48.522;7.682;2023-07-13T02:29:15;17.10;1.00
11650;DHT22;5881;48.522;7.682;2023-07-13T02:31:41;17.00;1.00
11650;DHT22;5881;48.522;7.682;2023-07-13T02:34:06;16.90;1.00
11650;DHT22;5881;48.522;7.682;2023-07-13T02:36:32;16.90;1.00
11650;DHT22;5881;48.522;7.682;2023-07-13T02:39:01;16.90;1.00
11650;DHT22;5881;48.522;7.682;2023-07-13T02:41:28;16.90;1.00
11650;DHT22;5881;48.522;7.682;2023-07-13T02:43:53;16.90;1.00
11650;DHT22;5881;48.522;7.682;2023-07-13T02:46:19;16.80;1.00
11650;DHT22;5881;48.522;7.682;2023-07-13T02:48:45;16.80;1.00
11650;DHT22;5881;48.522;7.682;2023-07-13T02:51:11;16.70;1.00
11650;DHT22;5881;48.522;7.682;2023-07-13T02:53:37;16.80;1.00
11650;DHT22;5881;48.522;7.682;2023-07-13T02:56:04;16.80;1.00
11650;DHT22;5881;48.522;7.682;2023-07-13T02:58:30;16.70;1.00
11650;DHT22;5881;48.522;7.682;2023-07-13T03:00:56;16.80;1.00
11650;DHT22;5881;48.522;7.682;2023-07-13T03:03:23;16.80;1.00
11650;DHT22;5881;48.522;7.682;2023-07-13T03:05:58;16.80;1.00
11650;DHT22;5881;48.522;7.682;2023-07-13T03:08:25;16.60;1.00
11650;DHT22;5881;48.522;7.682;2023-07-13T03:11:03;16.50;1.00
11650;DHT22;5881;48.522;7.682;2023-07-13T03:13:29;16.40;1.00
11650;DHT22;5881;48.522;7.682;2023-07-13T03:15:54;16.40;1.00
11650;DHT22;5881;48.522;7.682;2023-07-13T03:18:20;16.40;1.00
11650;DHT22;5881;48.522;7.682;2023-07-13T03:20:45;16.50;1.00
11650;DHT22;5881;48.522;7.682;2023-07-13T03:23:11;16.50;1.00
11650;DHT22;5881;48.522;7.682;2023-07-13T03:25:37;16.40;1.00
11650;DHT22;5881;48.522;7.682;2023-07-13T03:28:02;16.40;1.00
11650;DHT22;5881;48.522;7.682;2023-07-13T03:30:29;16.40;1.00
11650;DHT22;5881;48.522;7.682;2023-07-13T03:32:55;16.40;1.00
11650;DHT22;5881;48.522;7.682;2023-07-13T03:35:20;16.30;1.00
11650;DHT22;5881;48.522;7.682;2023-07-13T03:37:46;16.30;1.00
11650;DHT22;5881;48.522;7.682;2023-07-13T03:40:12;16.30;1.00
11650;DHT22;5881;48.522;7.682;2023-07-13T03:42:38;16.30;1.00
11650;DHT22;5881;48.522;7.682;2023-07-13T03:45:04;16.40;1.00
11650;DHT22;5881;48.522;7.682;2023-07-13T03:47:29;16.40;1.00
11650;DHT22;5881;48.522;7.682;2023-07-13T03:49:55;16.40;1.00
11650;DHT22;5881;48.522;7.682;2023-07-13T03:52:21;16.40;1.00
11650;DHT22;5881;48.522;7.682;2023-07-13T03:54:46;16.40;1.00
11650;DHT22;5881;48.522;7.682;2023-07-13T03:57:12;16.30;1.00
11650;DHT22;5881;48.522;7.682;2023-07-13T03:59:38;16.20;1.00
11650;DHT22;5881;48.522;7.682;2023-07-13T04:02:03;16.20;1.00
11650;DHT22;5881;48.522;7.682;2023-07-13T04:04:30;16.30;1.00
11650;DHT22;5881;48.522;7.682;2023-07-13T04:06:57;16.20;1.00
11650;DHT22;5881;48.522;7.682;2023-07-13T04:09:24;16.20;1.00
11650;DHT22;5881;48.522;7.682;2023-07-13T04:11:49;16.30;1.00
11650;DHT22;5881;48.522;7.682;2023-07-13T04:14:15;16.30;1.00
11650;DHT22;5881;48.522;7.682;2023-07-13T04:16:41;16.40;1.00
11650;DHT22;5881;48.522;7.682;2023-07-13T04:19:08;16.40;1.00
11650;DHT22;5881;48.522;7.682;2023-07-13T04:21:35;16.40;1.00
11650;DHT22;5881;48.522;7.682;2023-07-13T04:24:02;16.50;1.00
11650;DHT22;5881;48.522;7.682;2023-07-13T04:26:28;16.50;1.00
11650;DHT22;5881;48.522;7.682;2023-07-13T04:28:54;16.60;1.00
11650;DHT22;5881;48.522;7.682;2023-07-13T04:31:20;16.70;1.00
11650;DHT22;5881;48.522;7.682;2023-07-13T04:33:45;16.90;1.00
11650;DHT22;5881;48.522;7.682;2023-07-13T04:36:11;16.90;1.00
11650;DHT22;5881;48.522;7.682;2023-07-13T04:38:37;17.00;1.00
11650;DHT22;5881;48.522;7.682;2023-07-13T04:41:05;17.00;1.00
11650;DHT22;5881;48.522;7.682;2023-07-13T04:43:31;17.20;1.00
11650;DHT22;5881;48.522;7.682;2023-07-13T04:46:02;17.20;1.00
11650;DHT22;5881;48.522;7.682;2023-07-13T04:48:28;17.30;1.00
11650;DHT22;5881;48.522;7.682;2023-07-13T04:50:55;17.30;1.00
11650;DHT22;5881;48.522;7.682;2023-07-13T04:53:21;17.40;1.00
11650;DHT22;5881;48.522;7.682;2023-07-13T04:55:47;17.70;1.00
11650;DHT22;5881;48.522;7.682;2023-07-13T04:58:13;18.20;1.00
11650;DHT22;5881;48.522;7.682;2023-07-13T05:00:38;18.90;1.00
11650;DHT22;5881;48.522;7.682;2023-07-13T05:03:04;19.70;1.00
11650;DHT22;5881;48.522;7.682;2023-07-13T05:05:30;19.40;1.00
11650;DHT22;5881;48.522;7.682;2023-07-13T05:07:56;19.10;1.00
11650;DHT22;5881;48.522;7.682;2023-07-13T05:10:22;19.40;1.00
11650;DHT22;5881;48.522;7.682;2023-07-13T05:12:48;20.50;1.00
11650;DHT22;5881;48.522;7.682;2023-07-13T05:15:14;21.10;1.00
11650;DHT22;5881;48.522;7.682;2023-07-13T05:17:39;21.30;1.00
11650;DHT22;5881;48.522;7.682;2023-07-13T05:20:07;20.80;1.00
11650;DHT22;5881;48.522;7.682;2023-07-13T05:22:32;20.40;1.00
11650;DHT22;5881;48.522;7.682;2023-07-13T05:25:09;21.00;1.00
11650;DHT22;5881;48.522;7.682;2023-07-13T05:27:36;21.00;1.00
11650;DHT22;5881;48.522;7.682;2023-07-13T05:30:03;20.10;1.00
11650;DHT22;5881;48.522;7.682;2023-07-13T05:32:29;20.20;1.00
11650;DHT22;5881;48.522;7.682;2023-07-13T05:34:54;21.50;1.00
11650;DHT22;5881;48.522;7.682;2023-07-13T05:37:20;22.10;1.00
11650;DHT22;5881;48.522;7.682;2023-07-13T05:39:46;21.30;1.00
11650;DHT22;5881;48.522;7.682;2023-07-13T05:42:12;20.70;1.00
11650;DHT22;5881;48.522;7.682;2023-07-13T05:44:37;20.40;1.00
11650;DHT22;5881;48.522;7.682;2023-07-13T05:47:03;21.10;1.00
11650;DHT22;5881;48.522;7.682;2023-07-13T05:49:29;21.00;1.00
11650;DHT22;5881;48.522;7.682;2023-07-13T05:51:56;20.60;1.00
11650;DHT22;5881;48.522;7.682;2023-07-13T05:54:22;20.90;1.00
11650;DHT22;5881;48.522;7.682;2023-07-13T05:56:47;22.60;1.00
11650;DHT22;5881;48.522;7.682;2023-07-13T05:59:13;23.30;1.00
11650;DHT22;5881;48.522;7.682;2023-07-13T06:01:38;24.10;1.00
11650;DHT22;5881;48.522;7.682;2023-07-13T06:04:04;23.50;1.00
11650;DHT22;5881;48.522;7.682;2023-07-13T06:06:30;22.20;1.00
11650;DHT22;5881;48.522;7.682;2023-07-13T06:08:56;23.10;1.00
11650;DHT22;5881;48.522;7.682;2023-07-13T06:11:25;24.90;1.00
11650;DHT22;5881;48.522;7.682;2023-07-13T06:13:51;25.10;1.00
11650;DHT22;5881;48.522;7.682;2023-07-13T06:16:17;25.70;1.00
11650;DHT22;5881;48.522;7.682;2023-07-13T06:18:43;25.00;1.00
11650;DHT22;5881;48.522;7.682;2023-07-13T06:21:14;25.70;1.00
11650;DHT22;5881;48.522;7.682;2023-07-13T06:23:40;26.20;1.00
11650;DHT22;5881;48.522;7.682;2023-07-13T06:26:07;26.50;1.00
11650;DHT22;5881;48.522;7.682;2023-07-13T06:28:33;28.10;1.00
11650;DHT22;5881;48.522;7.682;2023-07-13T06:30:59;27.00;1.00
11650;DHT22;5881;48.522;7.682;2023-07-13T06:33:26;27.20;1.00
11650;DHT22;5881;48.522;7.682;2023-07-13T06:35:51;27.40;1.00
11650;DHT22;5881;48.522;7.682;2023-07-13T06:38:17;26.60;1.00
11650;DHT22;5881;48.522;7.682;2023-07-13T06:40:43;27.40;1.00
11650;DHT22;5881;48.522;7.682;2023-07-13T06:43:09;26.60;1.00
11650;DHT22;5881;48.522;7.682;2023-07-13T06:45:41;27.80;1.00
11650;DHT22;5881;48.522;7.682;2023-07-13T06:48:07;28.30;1.00
11650;DHT22;5881;48.522;7.682;2023-07-13T06:50:33;27.70;1.00
11650;DHT22;5881;48.522;7.682;2023-07-13T06:52:59;28.20;1.00
11650;DHT22;5881;48.522;7.682;2023-07-13T06:55:25;27.80;1.00
11650;DHT22;5881;48.522;7.682;2023-07-13T06:57:51;28.10;1.00
11650;DHT22;5881;48.522;7.682;2023-07-13T07:00:17;28.90;1.00
11650;DHT22;5881;48.522;7.682;2023-07-13T07:02:42;29.60;1.00
11650;DHT22;5881;48.522;7.682;2023-07-13T07:05:08;27.90;1.00
11650;DHT22;5881;48.522;7.682;2023-07-13T07:07:34;29.30;1.00
11650;DHT22;5881;48.522;7.682;2023-07-13T07:09:59;29.60;1.00
11650;DHT22;5881;48.522;7.682;2023-07-13T07:12:25;29.30;1.00
11650;DHT22;5881;48.522;7.682;2023-07-13T07:14:51;29.60;1.00
11650;DHT22;5881;48.522;7.682;2023-07-13T07:17:16;30.10;1.00
11650;DHT22;5881;48.522;7.682;2023-07-13T07:19:42;30.40;1.00
11650;DHT22;5881;48.522;7.682;2023-07-13T07:22:07;30.20;1.00
11650;DHT22;5881;48.522;7.682;2023-07-13T07:24:33;30.20;1.00
11650;DHT22;5881;48.522;7.682;2023-07-13T07:26:59;29.60;1.00
11650;DHT22;5881;48.522;7.682;2023-07-13T07:29:24;30.20;1.00
11650;DHT22;5881;48.522;7.682;2023-07-13T07:31:52;31.40;1.00
11650;DHT22;5881;48.522;7.682;2023-07-13T07:34:17;31.50;1.00
11650;DHT22;5881;48.522;7.682;2023-07-13T07:36:43;30.50;1.00
11650;DHT22;5881;48.522;7.682;2023-07-13T07:39:08;30.50;1.00
11650;DHT22;5881;48.522;7.682;2023-07-13T07:41:34;31.50;1.00
11650;DHT22;5881;48.522;7.682;2023-07-13T07:43:59;33.30;1.00
11650;DHT22;5881;48.522;7.682;2023-07-13T07:46:25;33.10;1.00
11650;DHT22;5881;48.522;7.682;2023-07-13T07:48:51;30.50;1.00
11650;DHT22;5881;48.522;7.682;2023-07-13T07:51:16;30.20;1.00
11650;DHT22;5881;48.522;7.682;2023-07-13T07:53:42;30.50;1.00
11650;DHT22;5881;48.522;7.682;2023-07-13T07:56:07;31.00;1.00
11650;DHT22;5881;48.522;7.682;2023-07-13T07:58:35;32.40;1.00
11650;DHT22;5881;48.522;7.682;2023-07-13T08:01:07;32.80;1.00
11650;DHT22;5881;48.522;7.682;2023-07-13T08:03:33;31.60;1.00
11650;DHT22;5881;48.522;7.682;2023-07-13T08:05:58;31.40;1.00
11650;DHT22;5881;48.522;7.682;2023-07-13T08:08:24;32.30;1.00
11650;DHT22;5881;48.522;7.682;2023-07-13T08:10:50;32.50;1.00
11650;DHT22;5881;48.522;7.682;2023-07-13T08:13:16;31.50;1.00
11650;DHT22;5881;48.522;7.682;2023-07-13T08:15:42;31.60;1.00
11650;DHT22;5881;48.522;7.682;2023-07-13T08:18:07;31.10;1.00
11650;DHT22;5881;48.522;7.682;2023-07-13T08:20:39;31.70;1.00
11650;DHT22;5881;48.522;7.682;2023-07-13T08:23:05;32.70;1.00
11650;DHT22;5881;48.522;7.682;2023-07-13T08:25:32;32.10;1.00
11650;DHT22;5881;48.522;7.682;2023-07-13T08:27:57;31.30;1.00
11650;DHT22;5881;48.522;7.682;2023-07-13T08:30:23;31.10;1.00
11650;DHT22;5881;48.522;7.682;2023-07-13T08:32:49;32.20;1.00
11650;DHT22;5881;48.522;7.682;2023-07-13T08:35:15;31.00;1.00
11650;DHT22;5881;48.522;7.682;2023-07-13T08:37:41;31.10;1.00
11650;DHT22;5881;48.522;7.682;2023-07-13T08:40:10;30.10;1.00
11650;DHT22;5881;48.522;7.682;2023-07-13T08:42:46;31.70;1.00
11650;DHT22;5881;48.522;7.682;2023-07-13T08:45:30;31.30;1.00
11650;DHT22;5881;48.522;7.682;2023-07-13T08:48:05;30.40;1.00
11650;DHT22;5881;48.522;7.682;2023-07-13T08:50:48;32.70;1.00
11650;DHT22;5881;48.522;7.682;2023-07-13T08:53:15;32.60;1.00
11650;DHT22;5881;48.522;7.682;2023-07-13T08:55:42;30.80;1.00
11650;DHT22;5881;48.522;7.682;2023-07-13T08:58:13;31.00;1.00
11650;DHT22;5881;48.522;7.682;2023-07-13T09:00:55;30.80;1.00
11650;DHT22;5881;48.522;7.682;2023-07-13T09:03:25;32.10;1.00
11650;DHT22;5881;48.522;7.682;2023-07-13T09:05:57;30.10;1.00
11650;DHT22;5881;48.522;7.682;2023-07-13T09:08:30;29.80;1.00
11650;DHT22;5881;48.522;7.682;2023-07-13T09:13:46;30.90;1.00
11650;DHT22;5881;48.522;7.682;2023-07-13T09:16:16;32.50;1.00
11650;DHT22;5881;48.522;7.682;2023-07-13T09:18:45;31.90;1.00
11650;DHT22;5881;48.522;7.682;2023-07-13T09:21:19;31.70;1.00
11650;DHT22;5881;48.522;7.682;2023-07-13T09:23:47;32.30;1.00
11650;DHT22;5881;48.522;7.682;2023-07-13T09:26:19;32.70;1.00
11650;DHT22;5881;48.522;7.682;2023-07-13T09:31:39;31.40;1.00
11650;DHT22;5881;48.522;7.682;2023-07-13T09:34:12;30.30;1.00
11650;DHT22;5881;48.522;7.682;2023-07-13T09:36:39;31.50;1.00
11650;DHT22;5881;48.522;7.682;2023-07-13T09:44:10;33.20;1.00
11650;DHT22;5881;48.522;7.682;2023-07-13T09:46:39;32.20;1.00
11650;DHT22;5881;48.522;7.682;2023-07-13T09:49:05;31.90;1.00
11650;DHT22;5881;48.522;7.682;2023-07-13T09:51:30;34.40;1.00
11650;DHT22;5881;48.522;7.682;2023-07-13T09:53:56;35.80;1.00
11650;DHT22;5881;48.522;7.682;2023-07-13T09:56:27;33.40;1.00
11650;DHT22;5881;48.522;7.682;2023-07-13T09:58:55;31.40;1.00
11650;DHT22;5881;48.522;7.682;2023-07-13T10:01:36;31.20;1.00
11650;DHT22;5881;48.522;7.682;2023-07-13T10:04:02;32.50;1.00
11650;DHT22;5881;48.522;7.682;2023-07-13T10:06:35;32.50;1.00
11650;DHT22;5881;48.522;7.682;2023-07-13T10:09:00;31.30;1.00
11650;DHT22;5881;48.522;7.682;2023-07-13T10:11:28;28.70;1.00
11650;DHT22;5881;48.522;7.682;2023-07-13T10:14:02;30.00;1.00
11650;DHT22;5881;48.522;7.682;2023-07-13T10:16:31;30.30;1.00
11650;DHT22;5881;48.522;7.682;2023-07-13T10:19:12;29.20;1.00
11650;DHT22;5881;48.522;7.682;2023-07-13T10:21:52;28.60;1.00
11650;DHT22;5881;48.522;7.682;2023-07-13T10:24:23;27.60;1.00
11650;DHT22;5881;48.522;7.682;2023-07-13T10:27:00;27.50;1.00
11650;DHT22;5881;48.522;7.682;2023-07-13T10:29:34;28.00;1.00
11650;DHT22;5881;48.522;7.682;2023-07-13T10:32:01;27.30;1.00
11650;DHT22;5881;48.522;7.682;2023-07-13T10:34:27;27.10;1.00
11650;DHT22;5881;48.522;7.682;2023-07-13T10:36:53;27.60;1.00
11650;DHT22;5881;48.522;7.682;2023-07-13T10:39:21;28.60;1.00
11650;DHT22;5881;48.522;7.682;2023-07-13T10:42:00;30.20;1.00
11650;DHT22;5881;48.522;7.682;2023-07-13T10:44:29;31.40;1.00
11650;DHT22;5881;48.522;7.682;2023-07-13T10:46:59;32.20;1.00
11650;DHT22;5881;48.522;7.682;2023-07-13T10:49:27;32.80;1.00
11650;DHT22;5881;48.522;7.682;2023-07-13T10:51:54;33.30;1.00
11650;DHT22;5881;48.522;7.682;2023-07-13T10:54:30;33.40;1.00
11650;DHT22;5881;48.522;7.682;2023-07-13T10:57:22;33.00;1.00
11650;DHT22;5881;48.522;7.682;2023-07-13T11:00:34;32.40;1.00
11650;DHT22;5881;48.522;7.682;2023-07-13T11:02:35;32.50;1.00
11650;DHT22;5881;48.522;7.682;2023-07-13T11:05:27;33.00;1.00
11650;DHT22;5881;48.522;7.682;2023-07-13T11:08:13;32.70;1.00
11650;DHT22;5881;48.522;7.682;2023-07-13T11:10:55;32.40;1.00
11650;DHT22;5881;48.522;7.682;2023-07-13T11:30:24;31.70;1.00
11650;DHT22;5881;48.522;7.682;2023-07-13T11:32:52;32.30;1.00
11650;DHT22;5881;48.522;7.682;2023-07-13T11:35:31;31.40;1.00
11650;DHT22;5881;48.522;7.682;2023-07-13T11:37:57;31.80;1.00
11650;DHT22;5881;48.522;7.682;2023-07-13T11:40:26;30.60;1.00
11650;DHT22;5881;48.522;7.682;2023-07-13T11:42:59;29.30;1.00
11650;DHT22;5881;48.522;7.682;2023-07-13T11:45:25;29.00;1.00
11650;DHT22;5881;48.522;7.682;2023-07-13T11:47:51;28.70;1.00
11650;DHT22;5881;48.522;7.682;2023-07-13T11:50:23;28.80;1.00
11650;DHT22;5881;48.522;7.682;2023-07-13T11:52:50;28.70;1.00
11650;DHT22;5881;48.522;7.682;2023-07-13T11:55:20;28.90;1.00
11650;DHT22;5881;48.522;7.682;2023-07-13T11:57:54;28.40;1.00
11650;DHT22;5881;48.522;7.682;2023-07-13T12:00:24;28.50;1.00
11650;DHT22;5881;48.522;7.682;2023-07-13T12:02:54;27.90;1.00
11650;DHT22;5881;48.522;7.682;2023-07-13T12:05:21;29.40;1.00
11650;DHT22;5881;48.522;7.682;2023-07-13T12:07:48;29.40;1.00
11650;DHT22;5881;48.522;7.682;2023-07-13T12:10:26;29.50;1.00
11650;DHT22;5881;48.522;7.682;2023-07-13T12:15:26;28.80;1.00
11650;DHT22;5881;48.522;7.682;2023-07-13T12:17:53;28.30;1.00
11650;DHT22;5881;48.522;7.682;2023-07-13T12:20:26;29.80;1.00
11650;DHT22;5881;48.522;7.682;2023-07-13T12:22:53;30.30;1.00
11650;DHT22;5881;48.522;7.682;2023-07-13T12:25:19;30.40;1.00
11650;DHT22;5881;48.522;7.682;2023-07-13T12:27:49;30.60;1.00
11650;DHT22;5881;48.522;7.682;2023-07-13T12:30:42;31.00;1.00
11650;DHT22;5881;48.522;7.682;2023-07-13T12:33:13;30.20;1.00
11650;DHT22;5881;48.522;7.682;2023-07-13T12:35:48;30.40;1.00
11650;DHT22;5881;48.522;7.682;2023-07-13T12:38:16;30.60;1.00
11650;DHT22;5881;48.522;7.682;2023-07-13T12:40:42;30.30;1.00
11650;DHT22;5881;48.522;7.682;2023-07-13T12:43:12;29.80;1.00
11650;DHT22;5881;48.522;7.682;2023-07-13T12:45:38;29.90;1.00
11650;DHT22;5881;48.522;7.682;2023-07-13T12:48:11;29.80;1.00
11650;DHT22;5881;48.522;7.682;2023-07-13T12:50:41;29.50;1.00
11650;DHT22;5881;48.522;7.682;2023-07-13T12:53:14;29.30;1.00
11650;DHT22;5881;48.522;7.682;2023-07-13T12:55:49;30.00;1.00
11650;DHT22;5881;48.522;7.682;2023-07-13T12:58:38;28.50;1.00
11650;DHT22;5881;48.522;7.682;2023-07-13T13:01:05;28.50;1.00
11650;DHT22;5881;48.522;7.682;2023-07-13T13:03:37;28.70;1.00
11650;DHT22;5881;48.522;7.682;2023-07-13T13:06:05;28.30;1.00
11650;DHT22;5881;48.522;7.682;2023-07-13T13:08:33;28.20;1.00
11650;DHT22;5881;48.522;7.682;2023-07-13T13:10:59;28.30;1.00
11650;DHT22;5881;48.522;7.682;2023-07-13T13:13:25;28.40;1.00
11650;DHT22;5881;48.522;7.682;2023-07-13T13:15:51;28.40;1.00
11650;DHT22;5881;48.522;7.682;2023-07-13T13:18:22;28.60;1.00
11650;DHT22;5881;48.522;7.682;2023-07-13T13:20:50;28.80;1.00
11650;DHT22;5881;48.522;7.682;2023-07-13T13:23:18;29.40;1.00
11650;DHT22;5881;48.522;7.682;2023-07-13T13:25:45;29.40;1.00
11650;DHT22;5881;48.522;7.682;2023-07-13T13:28:19;28.80;1.00
11650;DHT22;5881;48.522;7.682;2023-07-13T13:30:46;28.90;1.00
11650;DHT22;5881;48.522;7.682;2023-07-13T13:33:17;29.70;1.00
11650;DHT22;5881;48.522;7.682;2023-07-13T13:35:43;30.00;1.00
11650;DHT22;5881;48.522;7.682;2023-07-13T13:38:25;29.80;1.00
11650;DHT22;5881;48.522;7.682;2023-07-13T13:40:51;29.30;1.00
11650;DHT22;5881;48.522;7.682;2023-07-13T13:43:25;28.70;1.00
11650;DHT22;5881;48.522;7.682;2023-07-13T13:45:57;29.30;1.00
11650;DHT22;5881;48.522;7.682;2023-07-13T13:48:34;29.90;1.00
11650;DHT22;5881;48.522;7.682;2023-07-13T13:51:10;29.60;1.00
11650;DHT22;5881;48.522;7.682;2023-07-13T13:53:37;28.90;1.00
11650;DHT22;5881;48.522;7.682;2023-07-13T13:56:04;28.70;1.00
11650;DHT22;5881;48.522;7.682;2023-07-13T13:58:30;29.10;1.00
11650;DHT22;5881;48.522;7.682;2023-07-13T14:00:56;29.00;1.00
11650;DHT22;5881;48.522;7.682;2023-07-13T14:03:23;28.70;1.00
11650;DHT22;5881;48.522;7.682;2023-07-13T14:05:49;28.60;1.00
11650;DHT22;5881;48.522;7.682;2023-07-13T14:08:18;28.70;1.00
11650;DHT22;5881;48.522;7.682;2023-07-13T14:10:45;28.70;1.00
11650;DHT22;5881;48.522;7.682;2023-07-13T14:13:21;28.60;1.00
11650;DHT22;5881;48.522;7.682;2023-07-13T14:15:47;28.50;1.00
11650;DHT22;5881;48.522;7.682;2023-07-13T14:18:13;29.00;1.00
11650;DHT22;5881;48.522;7.682;2023-07-13T14:20:44;28.60;1.00
11650;DHT22;5881;48.522;7.682;2023-07-13T14:23:12;28.00;1.00
11650;DHT22;5881;48.522;7.682;2023-07-13T14:25:38;28.00;1.00
11650;DHT22;5881;48.522;7.682;2023-07-13T14:28:32;27.70;1.00
11650;DHT22;5881;48.522;7.682;2023-07-13T14:30:57;27.60;1.00
11650;DHT22;5881;48.522;7.682;2023-07-13T14:33:23;27.60;1.00
11650;DHT22;5881;48.522;7.682;2023-07-13T14:35:50;27.90;1.00
11650;DHT22;5881;48.522;7.682;2023-07-13T14:38:19;28.10;1.00
11650;DHT22;5881;48.522;7.682;2023-07-13T14:40:45;28.00;1.00
11650;DHT22;5881;48.522;7.682;2023-07-13T14:43:15;28.00;1.00
11650;DHT22;5881;48.522;7.682;2023-07-13T14:45:46;27.70;1.00
11650;DHT22;5881;48.522;7.682;2023-07-13T14:48:32;27.60;1.00
11650;DHT22;5881;48.522;7.682;2023-07-13T14:50:59;27.50;1.00
11650;DHT22;5881;48.522;7.682;2023-07-13T14:53:26;27.60;1.00
11650;DHT22;5881;48.522;7.682;2023-07-13T14:55:53;27.60;1.00
11650;DHT22;5881;48.522;7.682;2023-07-13T14:58:19;27.50;1.00
11650;DHT22;5881;48.522;7.682;2023-07-13T15:00:44;27.40;1.00
11650;DHT22;5881;48.522;7.682;2023-07-13T15:03:20;27.80;1.00
11650;DHT22;5881;48.522;7.682;2023-07-13T15:05:51;27.60;1.00
11650;DHT22;5881;48.522;7.682;2023-07-13T15:08:16;27.60;1.00
11650;DHT22;5881;48.522;7.682;2023-07-13T15:10:42;27.50;1.00
11650;DHT22;5881;48.522;7.682;2023-07-13T15:13:19;27.20;1.00
11650;DHT22;5881;48.522;7.682;2023-07-13T15:15:50;27.30;1.00
11650;DHT22;5881;48.522;7.682;2023-07-13T15:18:18;27.70;1.00
11650;DHT22;5881;48.522;7.682;2023-07-13T15:20:45;28.00;1.00
11650;DHT22;5881;48.522;7.682;2023-07-13T15:23:13;28.20;1.00
11650;DHT22;5881;48.522;7.682;2023-07-13T15:25:40;28.20;1.00
11650;DHT22;5881;48.522;7.682;2023-07-13T15:28:06;27.70;1.00
11650;DHT22;5881;48.522;7.682;2023-07-13T15:30:46;27.60;1.00
11650;DHT22;5881;48.522;7.682;2023-07-13T15:33:26;27.00;1.00
11650;DHT22;5881;48.522;7.682;2023-07-13T15:35:52;26.80;1.00
11650;DHT22;5881;48.522;7.682;2023-07-13T15:38:33;27.00;1.00
11650;DHT22;5881;48.522;7.682;2023-07-13T15:41:13;27.20;1.00
11650;DHT22;5881;48.522;7.682;2023-07-13T15:43:41;26.90;1.00
11650;DHT22;5881;48.522;7.682;2023-07-13T15:46:06;26.80;1.00
11650;DHT22;5881;48.522;7.682;2023-07-13T15:48:34;26.90;1.00
11650;DHT22;5881;48.522;7.682;2023-07-13T15:51:05;26.60;1.00
11650;DHT22;5881;48.522;7.682;2023-07-13T15:53:35;26.30;1.00
11650;DHT22;5881;48.522;7.682;2023-07-13T15:56:16;26.30;1.00
11650;DHT22;5881;48.522;7.682;2023-07-13T15:58:42;26.50;1.00
11650;DHT22;5881;48.522;7.682;2023-07-13T16:01:10;26.60;1.00
11650;DHT22;5881;48.522;7.682;2023-07-13T16:03:36;26.50;1.00
11650;DHT22;5881;48.522;7.682;2023-07-13T16:06:01;26.50;1.00
11650;DHT22;5881;48.522;7.682;2023-07-13T16:08:31;26.50;1.00
11650;DHT22;5881;48.522;7.682;2023-07-13T16:10:58;26.20;1.00
11650;DHT22;5881;48.522;7.682;2023-07-13T16:13:25;26.20;1.00
11650;DHT22;5881;48.522;7.682;2023-07-13T16:15:51;26.30;1.00
11650;DHT22;5881;48.522;7.682;2023-07-13T16:18:17;26.20;1.00
11650;DHT22;5881;48.522;7.682;2023-07-13T16:20:45;26.40;1.00
11650;DHT22;5881;48.522;7.682;2023-07-13T16:23:12;26.60;1.00
11650;DHT22;5881;48.522;7.682;2023-07-13T16:25:39;26.60;1.00
11650;DHT22;5881;48.522;7.682;2023-07-13T16:28:06;26.80;1.00
11650;DHT22;5881;48.522;7.682;2023-07-13T16:30:32;26.80;1.00
11650;DHT22;5881;48.522;7.682;2023-07-13T16:33:03;27.00;1.00
11650;DHT22;5881;48.522;7.682;2023-07-13T16:35:39;27.00;1.00
11650;DHT22;5881;48.522;7.682;2023-07-13T16:38:17;27.00;1.00
11650;DHT22;5881;48.522;7.682;2023-07-13T16:40:43;26.60;1.00